Time;durP1;ratioP1;P1;durP2;ratioP2;P2;SDS_P1;SDS_P2;PMS_P1;PMS_P2;Temp;Humidity;BMP_temperature;BMP_pressure;BME280_temperature;BME280_humidity;BME280_pressure;Samples;Min_cycle;Max_cycle;Signal;HPM_P1;HPM_P2
2022/10/15 00:03:08;;;;;;;0.95;0.10;;;;;;;;;;10359761;28;20038;-80
2022/10/15 00:08:12;;;;;;;0.15;0.10;;;;;;;;;;10361901;28;20049;-81
2022/10/15 00:13:16;;;;;;;0.20;0.10;;;;;;;;;;10365759;28;20092;-81
2022/10/15 00:18:21;;;;;;;0.10;0.10;;;;;;;;;;10346783;28;20112;-81
2022/10/15 00:23:24;;;;;;;0.47;0.20;;;;;;;;;;10378573;28;20676;-80
2022/10/15 00:28:28;;;;;;;0.10;0.10;;;;;;;;;;10361667;28;20042;-80
2022/10/15 00:33:35;;;;;;;0.10;0.10;;;;;;;;;;10343349;28;20657;-80
2022/10/15 00:38:39;;;;;;;0.20;0.20;;;;;;;;;;10343379;28;20042;-80
2022/10/15 00:43:47;;;;;;;0.20;0.20;;;;;;;;;;10376478;28;21095;-81
2022/10/15 00:48:58;;;;;;;0.60;0.60;;;;;;;;;;10341618;28;20053;-81
2022/10/15 00:54:02;;;;;;;0.73;0.73;;;;;;;;;;10341299;28;20038;-80
2022/10/15 00:59:06;;;;;;;1.30;0.70;;;;;;;;;;10374954;28;20054;-80
2022/10/15 01:04:12;;;;;;;0.35;0.30;;;;;;;;;;10338719;28;20509;-80
2022/10/15 01:09:15;;;;;;;0.50;0.30;;;;;;;;;;10360517;28;20102;-80
2022/10/15 01:14:32;;;;;;;0.22;0.20;;;;;;;;;;10342062;28;20041;-81
2022/10/15 01:20:00;;;;;;;0.20;0.20;;;;;;;;;;10376506;28;20728;-81
2022/10/15 01:25:17;;;;;;;0.30;0.30;;;;;;;;;;10349991;28;20054;-80
2022/10/15 01:30:33;;;;;;;0.30;0.30;;;;;;;;;;10351315;28;20065;-80
2022/10/15 01:35:48;;;;;;;1.85;0.28;;;;;;;;;;10365377;28;20038;-81
2022/10/15 01:40:57;;;;;;;0.20;0.20;;;;;;;;;;10350088;28;20401;-79
2022/10/15 01:46:06;;;;;;;3.15;0.50;;;;;;;;;;10348266;28;20042;-80
2022/10/15 01:51:36;;;;;;;0.20;0.20;;;;;;;;;;10347517;28;20053;-81
2022/10/15 01:56:45;;;;;;;0.20;0.20;;;;;;;;;;10346934;28;20069;-80
2022/10/15 02:01:53;;;;;;;0.63;0.20;;;;;;;;;;10346381;28;20049;-80
2022/10/15 02:07:02;;;;;;;0.40;0.40;;;;;;;;;;10342521;28;20514;-80
2022/10/15 02:12:25;;;;;;;0.50;0.30;;;;;;;;;;10346094;28;20038;-81
2022/10/15 02:17:35;;;;;;;0.30;0.30;;;;;;;;;;10346879;28;20468;-81
2022/10/15 02:22:46;;;;;;;0.30;0.30;;;;;;;;;;10372469;28;20042;-81
2022/10/15 02:27:53;;;;;;;0.40;0.40;;;;;;;;;;10349563;28;20050;-80
2022/10/15 02:32:59;;;;;;;0.40;0.40;;;;;;;;;;10382104;28;20066;-80
2022/10/15 02:38:07;;;;;;;0.30;0.30;;;;;;;;;;10348377;28;20054;-80
2022/10/15 02:43:14;;;;;;;0.22;0.22;;;;;;;;;;10380521;28;20650;-81
2022/10/15 02:48:19;;;;;;;1.63;0.43;;;;;;;;;;10345465;28;20421;-80
2022/10/15 02:53:23;;;;;;;1.20;0.30;;;;;;;;;;10347530;28;20050;-80
2022/10/15 02:58:28;;;;;;;0.60;0.43;;;;;;;;;;10362265;28;20125;-80
2022/10/15 03:03:33;;;;;;;0.40;0.40;;;;;;;;;;10345120;28;20176;-81
2022/10/15 03:08:37;;;;;;;0.83;0.40;;;;;;;;;;10369199;28;20041;-80
2022/10/15 03:13:41;;;;;;;1.55;0.60;;;;;;;;;;10353720;28;20057;-80
2022/10/15 03:18:46;;;;;;;0.60;0.40;;;;;;;;;;10362198;28;20078;-81
2022/10/15 03:23:51;;;;;;;0.35;0.35;;;;;;;;;;10345218;28;20052;-81
2022/10/15 03:28:58;;;;;;;1.15;0.40;;;;;;;;;;10346512;28;20046;-80
2022/10/15 03:34:29;;;;;;;0.40;0.40;;;;;;;;;;10359950;28;20125;-80
2022/10/15 03:39:33;;;;;;;0.60;0.50;;;;;;;;;;10360896;28;20046;-80
2022/10/15 03:44:39;;;;;;;0.40;0.40;;;;;;;;;;10336165;28;20037;-80
2022/10/15 03:49:47;;;;;;;0.40;0.40;;;;;;;;;;10359288;28;20069;-80
2022/10/15 03:54:51;;;;;;;0.55;0.50;;;;;;;;;;10342932;28;20069;-81
2022/10/15 03:59:56;;;;;;;0.77;0.45;;;;;;;;;;10343555;28;20508;-80
2022/10/15 04:05:04;;;;;;;0.40;0.40;;;;;;;;;;10344274;28;20042;-80
2022/10/15 04:10:08;;;;;;;0.38;0.38;;;;;;;;;;10342536;28;20069;-80
2022/10/15 04:15:15;;;;;;;0.80;0.45;;;;;;;;;;10342959;28;20069;-80
2022/10/15 04:20:31;;;;;;;0.63;0.30;;;;;;;;;;10375575;28;20084;-80
2022/10/15 04:25:46;;;;;;;0.63;0.40;;;;;;;;;;10359716;28;20501;-81
2022/10/15 04:30:49;;;;;;;0.30;0.30;;;;;;;;;;10359938;28;20054;-80
2022/10/15 04:36:03;;;;;;;0.65;0.40;;;;;;;;;;10359914;28;20038;-80
2022/10/15 04:41:21;;;;;;;0.80;0.40;;;;;;;;;;10359805;28;20049;-80
2022/10/15 04:46:32;;;;;;;0.90;0.50;;;;;;;;;;10360955;28;20038;-81
2022/10/15 04:51:45;;;;;;;0.57;0.50;;;;;;;;;;10344528;28;20506;-80
2022/10/15 04:56:54;;;;;;;0.73;0.50;;;;;;;;;;10369710;28;20042;-82
2022/10/15 05:01:57;;;;;;;0.47;0.47;;;;;;;;;;10352469;28;20049;-81
2022/10/15 05:07:04;;;;;;;1.48;0.80;;;;;;;;;;10369397;28;20046;-81
2022/10/15 05:12:07;;;;;;;0.80;0.63;;;;;;;;;;10352412;28;20050;-81
2022/10/15 05:17:11;;;;;;;1.38;1.00;;;;;;;;;;10366667;28;20046;-80
2022/10/15 05:22:19;;;;;;;0.60;0.60;;;;;;;;;;10350818;28;20680;-80
2022/10/15 05:27:28;;;;;;;0.35;0.35;;;;;;;;;;10349877;28;20038;-79
2022/10/15 05:32:31;;;;;;;1.77;0.60;;;;;;;;;;10349884;28;20085;-80
2022/10/15 05:37:36;;;;;;;2.05;0.90;;;;;;;;;;10350074;28;20044;-79
2022/10/15 05:42:40;;;;;;;2.05;1.30;;;;;;;;;;10359168;28;20049;-79
2022/10/15 05:47:43;;;;;;;0.52;0.52;;;;;;;;;;10371332;28;20038;-80
2022/10/15 05:52:54;;;;;;;0.80;0.80;;;;;;;;;;10365090;28;20102;-80
2022/10/15 05:58:04;;;;;;;0.50;0.50;;;;;;;;;;10347165;28;20046;-80
2022/10/15 06:03:12;;;;;;;0.68;0.52;;;;;;;;;;10365045;28;20042;-80
2022/10/15 06:08:17;;;;;;;0.40;0.40;;;;;;;;;;10347013;28;20065;-80
2022/10/15 06:13:20;;;;;;;1.30;0.80;;;;;;;;;;10364390;28;20070;-80
2022/10/15 06:18:24;;;;;;;1.05;0.55;;;;;;;;;;10346620;28;20069;-80
2022/10/15 06:23:29;;;;;;;0.50;0.50;;;;;;;;;;10365173;28;20049;-80
2022/10/15 06:28:33;;;;;;;0.38;0.30;;;;;;;;;;10363829;28;20045;-80
2022/10/15 06:33:37;;;;;;;0.77;0.45;;;;;;;;;;10364357;28;20054;-79
2022/10/15 06:38:43;;;;;;;0.30;0.30;;;;;;;;;;10361663;28;20130;-80
2022/10/15 06:43:49;;;;;;;0.30;0.30;;;;;;;;;;10361976;28;20073;-81
2022/10/15 06:48:54;;;;;;;0.25;0.25;;;;;;;;;;10363146;28;20457;-79
2022/10/15 06:53:59;;;;;;;0.55;0.30;;;;;;;;;;10345211;28;20042;-80
2022/10/15 06:59:03;;;;;;;0.25;0.25;;;;;;;;;;10361810;28;20489;-85
2022/10/15 07:04:06;;;;;;;0.25;0.25;;;;;;;;;;10364694;28;20128;-81
2022/10/15 07:09:11;;;;;;;0.22;0.22;;;;;;;;;;10346478;28;20046;-80
2022/10/15 07:14:14;;;;;;;0.20;0.20;;;;;;;;;;10377077;28;20077;-82
2022/10/15 07:19:18;;;;;;;1.55;0.10;;;;;;;;;;10343968;28;20133;-81
2022/10/15 07:24:23;;;;;;;0.20;0.20;;;;;;;;;;10362564;28;20472;-80
2022/10/15 07:29:27;;;;;;;0.20;0.20;;;;;;;;;;10363398;28;20509;-79
2022/10/15 07:34:30;;;;;;;0.28;0.20;;;;;;;;;;10344495;28;20160;-79
2022/10/15 07:39:35;;;;;;;0.22;0.22;;;;;;;;;;10357202;28;20037;-80
2022/10/15 07:44:38;;;;;;;0.20;0.20;;;;;;;;;;10361147;28;20361;-79
2022/10/15 07:49:45;;;;;;;2.05;0.50;;;;;;;;;;10343665;28;20046;-79
2022/10/15 07:54:50;;;;;;;0.90;0.30;;;;;;;;;;10360833;28;20572;-79
2022/10/15 07:59:54;;;;;;;0.17;0.17;;;;;;;;;;10343230;28;20510;-79
2022/10/15 08:04:58;;;;;;;0.40;0.20;;;;;;;;;;10360366;28;20132;-79
2022/10/15 08:10:04;;;;;;;0.38;0.30;;;;;;;;;;10359495;28;20529;-79
2022/10/15 08:15:08;;;;;;;0.30;0.30;;;;;;;;;;10358180;28;20076;-79
2022/10/15 08:20:12;;;;;;;0.10;0.10;;;;;;;;;;10356926;28;20048;-79
2022/10/15 08:25:17;;;;;;;0.30;0.30;;;;;;;;;;10357115;28;20052;-79
2022/10/15 08:30:20;;;;;;;0.20;0.20;;;;;;;;;;10352103;28;20543;-79
2022/10/15 08:35:25;;;;;;;0.80;0.20;;;;;;;;;;10356044;28;20065;-79
2022/10/15 08:40:30;;;;;;;0.10;0.10;;;;;;;;;;10334939;28;20640;-79
2022/10/15 08:45:43;;;;;;;0.28;0.20;;;;;;;;;;10341203;28;20505;-79
2022/10/15 08:50:52;;;;;;;0.10;0.10;;;;;;;;;;10349308;28;20045;-79
2022/10/15 08:56:03;;;;;;;0.20;0.20;;;;;;;;;;10336922;28;20555;-79
2022/10/15 09:01:13;;;;;;;0.10;0.10;;;;;;;;;;10330536;28;20133;-80
2022/10/15 09:06:23;;;;;;;0.10;0.10;;;;;;;;;;10354116;28;20050;-80
2022/10/15 09:11:42;;;;;;;0.10;0.10;;;;;;;;;;10358242;28;20506;-81
2022/10/15 09:16:48;;;;;;;2.53;0.20;;;;;;;;;;10336720;28;20066;-79
2022/10/15 09:21:52;;;;;;;0.60;0.13;;;;;;;;;;10353305;28;20141;-79
2022/10/15 09:27:06;;;;;;;0.30;0.10;;;;;;;;;;10353719;28;20160;-78
2022/10/15 09:32:16;;;;;;;0.20;0.20;;;;;;;;;;10343185;28;20485;-80
2022/10/15 09:37:28;;;;;;;0.40;0.10;;;;;;;;;;10365676;28;20100;-78
2022/10/15 09:42:38;;;;;;;0.75;0.15;;;;;;;;;;10369283;28;20506;-80
2022/10/15 09:47:45;;;;;;;0.10;0.10;;;;;;;;;;10355820;28;20070;-78
2022/10/15 09:53:03;;;;;;;0.32;0.20;;;;;;;;;;10373318;28;20077;-80
2022/10/15 09:58:14;;;;;;;0.80;0.08;;;;;;;;;;10373691;28;20065;-83
2022/10/15 10:03:18;;;;;;;0.35;0.20;;;;;;;;;;10375043;28;20073;-78
2022/10/15 10:08:24;;;;;;;0.90;0.20;;;;;;;;;;10357758;28;20413;-81
2022/10/15 10:13:32;;;;;;;0.98;0.30;;;;;;;;;;10358401;28;20045;-79
2022/10/15 10:18:36;;;;;;;0.30;0.20;;;;;;;;;;10374567;28;20100;-84
2022/10/15 10:23:40;;;;;;;0.30;0.30;;;;;;;;;;10370497;28;20152;-81
2022/10/15 10:28:51;;;;;;;0.20;0.20;;;;;;;;;;10353635;28;20042;-79
2022/10/15 10:33:56;;;;;;;0.10;0.10;;;;;;;;;;10350549;28;20485;-81
2022/10/15 10:39:04;;;;;;;0.40;0.22;;;;;;;;;;10347347;28;20711;-81
2022/10/15 10:44:20;;;;;;;0.20;0.20;;;;;;;;;;10362796;28;20146;-81
2022/10/15 10:49:32;;;;;;;0.10;0.10;;;;;;;;;;10358562;28;20058;-80
2022/10/15 10:54:35;;;;;;;0.30;0.20;;;;;;;;;;10361333;28;20042;-80
2022/10/15 10:59:48;;;;;;;0.98;0.20;;;;;;;;;;10358768;28;20107;-80
2022/10/15 11:04:52;;;;;;;0.35;0.20;;;;;;;;;;10361122;28;20117;-81
2022/10/15 11:10:02;;;;;;;0.20;0.20;;;;;;;;;;10354015;28;20042;-82
2022/10/15 11:15:18;;;;;;;0.20;0.20;;;;;;;;;;10333797;28;20050;-81
2022/10/15 11:20:31;;;;;;;0.28;0.20;;;;;;;;;;10343157;28;20046;-80
2022/10/15 11:25:54;;;;;;;0.65;0.30;;;;;;;;;;10354189;28;20100;-81
2022/10/15 11:31:08;;;;;;;0.25;0.20;;;;;;;;;;10360276;28;20044;-81
2022/10/15 11:36:29;;;;;;;0.47;0.13;;;;;;;;;;10358648;28;20057;-80
2022/10/15 11:41:42;;;;;;;0.20;0.20;;;;;;;;;;10342868;28;20068;-79
2022/10/15 11:46:54;;;;;;;0.13;0.10;;;;;;;;;;10366691;28;20437;-82
2022/10/15 11:52:28;;;;;;;1.25;0.50;;;;;;;;;;10350148;28;20129;-81
2022/10/15 11:57:34;;;;;;;0.30;0.30;;;;;;;;;;10344618;28;20050;-80
2022/10/15 12:02:40;;;;;;;0.50;0.45;;;;;;;;;;10346283;28;20045;-80
2022/10/15 12:07:45;;;;;;;0.87;0.30;;;;;;;;;;10361498;28;20049;-82
2022/10/15 12:12:59;;;;;;;0.43;0.25;;;;;;;;;;10362460;28;20046;-79
2022/10/15 12:18:10;;;;;;;0.15;0.10;;;;;;;;;;10360771;28;20124;-81
2022/10/15 12:23:40;;;;;;;0.17;0.15;;;;;;;;;;10341794;28;20052;-80
2022/10/15 12:28:49;;;;;;;1.13;0.20;;;;;;;;;;10363286;28;20429;-80
2022/10/15 12:33:56;;;;;;;0.05;0.05;;;;;;;;;;10353706;28;20058;-80
2022/10/15 12:39:01;;;;;;;0.03;0.03;;;;;;;;;;10364363;28;20034;-80
2022/10/15 12:44:16;;;;;;;0.00;0.00;;;;;;;;;;10359609;28;20502;-81
2022/10/15 12:49:59;;;;;;;0.00;0.00;;;;;;;;;;10363005;28;20065;-82
2022/10/15 12:55:22;;;;;;;0.10;0.10;;;;;;;;;;10359017;28;20517;-80
2022/10/15 13:00:39;;;;;;;0.20;0.20;;;;;;;;;;10343587;28;20042;-77
2022/10/15 13:05:45;;;;;;;0.00;0.00;;;;;;;;;;10359312;28;20046;-82
2022/10/15 13:10:52;;;;;;;1.67;0.10;;;;;;;;;;10358947;28;20482;-79
2022/10/15 13:15:58;;;;;;;0.00;0.00;;;;;;;;;;10338711;28;20053;-79
2022/10/15 13:21:03;;;;;;;0.57;0.10;;;;;;;;;;10365250;28;20061;-80
2022/10/15 13:26:18;;;;;;;0.40;0.10;;;;;;;;;;10362563;28;20061;-80
2022/10/15 13:31:25;;;;;;;0.45;0.10;;;;;;;;;;10367475;28;20104;-78
2022/10/15 13:36:33;;;;;;;0.03;0.03;;;;;;;;;;10349196;28;20046;-80
2022/10/15 13:41:39;;;;;;;0.00;0.00;;;;;;;;;;10366447;28;20688;-79
2022/10/15 13:46:42;;;;;;;;;;;;;;;;;;10366921;28;20052;-80
2022/10/15 13:51:49;;;;;;;0.75;0.10;;;;;;;;;;10367318;28;20008;-80
2022/10/15 13:56:56;;;;;;;1.15;0.10;;;;;;;;;;10363264;28;20058;-80
2022/10/15 14:02:03;;;;;;;0.00;0.00;;;;;;;;;;10368644;28;20038;-83
2022/10/15 14:07:25;;;;;;;0.38;0.20;;;;;;;;;;10356330;28;20367;-80
2022/10/15 14:12:29;;;;;;;0.15;0.00;;;;;;;;;;10349654;28;20060;-81
2022/10/15 14:17:33;;;;;;;0.25;0.05;;;;;;;;;;10366785;28;20588;-79
2022/10/15 14:22:38;;;;;;;0.32;0.15;;;;;;;;;;10349836;28;20038;-78
2022/10/15 14:27:45;;;;;;;0.15;0.05;;;;;;;;;;10347471;28;20128;-78
2022/10/15 14:32:51;;;;;;;1.55;0.10;;;;;;;;;;10367360;28;20045;-78
2022/10/15 14:38:03;;;;;;;0.08;0.00;;;;;;;;;;10348886;28;20046;-80
2022/10/15 14:43:14;;;;;;;0.47;0.05;;;;;;;;;;10348236;28;20041;-77
2022/10/15 14:48:23;;;;;;;0.00;0.00;;;;;;;;;;10366135;28;20129;-78
2022/10/15 14:53:33;;;;;;;0.17;0.17;;;;;;;;;;10347551;28;20042;-78
2022/10/15 14:58:38;;;;;;;0.03;0.03;;;;;;;;;;10364515;28;20042;-80
2022/10/15 15:03:43;;;;;;;0.38;0.22;;;;;;;;;;10364576;28;20050;-81
2022/10/15 15:08:48;;;;;;;0.25;0.00;;;;;;;;;;10346627;28;20038;-78
2022/10/15 15:13:52;;;;;;;0.28;0.10;;;;;;;;;;10363159;28;20072;-81
2022/10/15 15:18:57;;;;;;;0.10;0.10;;;;;;;;;;10361356;28;20065;-80
2022/10/15 15:24:01;;;;;;;0.13;0.00;;;;;;;;;;10342309;28;20529;-79
2022/10/15 15:29:11;;;;;;;0.10;0.10;;;;;;;;;;10358995;28;20041;-79
2022/10/15 15:34:14;;;;;;;0.00;0.00;;;;;;;;;;10360040;28;20046;-79
2022/10/15 15:39:19;;;;;;;0.00;0.00;;;;;;;;;;10342722;28;20430;-80
2022/10/15 15:44:23;;;;;;;0.30;0.08;;;;;;;;;;10360318;28;20038;-76
2022/10/15 15:49:26;;;;;;;0.10;0.10;;;;;;;;;;10348949;28;20136;-80
2022/10/15 15:54:31;;;;;;;0.45;0.35;;;;;;;;;;10358024;28;20672;-79
2022/10/15 15:59:34;;;;;;;0.80;0.43;;;;;;;;;;10356202;28;20057;-78
2022/10/15 16:04:37;;;;;;;0.15;0.15;;;;;;;;;;10355943;28;20409;-78
2022/10/15 16:09:43;;;;;;;0.20;0.20;;;;;;;;;;10359577;28;20125;-79
2022/10/15 16:14:46;;;;;;;0.10;0.10;;;;;;;;;;10359796;28;20048;-77
2022/10/15 16:19:50;;;;;;;0.00;0.00;;;;;;;;;;10356641;28;20056;-79
2022/10/15 16:24:54;;;;;;;0.25;0.10;;;;;;;;;;10358548;28;20050;-84
2022/10/15 16:29:59;;;;;;;0.30;0.10;;;;;;;;;;10362003;28;20038;-80
2022/10/15 16:35:03;;;;;;;1.88;0.10;;;;;;;;;;10357391;28;20057;-80
2022/10/15 16:40:09;;;;;;;0.10;0.10;;;;;;;;;;10350697;28;20149;-80
2022/10/15 16:45:14;;;;;;;0.00;0.00;;;;;;;;;;10339987;28;20444;-80
2022/10/15 16:50:17;;;;;;;0.10;0.10;;;;;;;;;;10363435;28;20045;-81
2022/10/15 16:55:22;;;;;;;0.60;0.10;;;;;;;;;;10358910;28;20096;-82
2022/10/15 17:00:25;;;;;;;0.10;0.10;;;;;;;;;;10355921;28;20116;-80
2022/10/15 17:05:30;;;;;;;0.20;0.20;;;;;;;;;;10372153;28;20075;-77
2022/10/15 17:10:41;;;;;;;0.32;0.32;;;;;;;;;;10371867;28;20045;-77
2022/10/15 17:15:44;;;;;;;0.82;0.57;;;;;;;;;;10362590;28;20041;-78
2022/10/15 17:20:48;;;;;;;0.80;0.38;;;;;;;;;;10369661;28;20533;-79
2022/10/15 17:25:53;;;;;;;0.25;0.25;;;;;;;;;;10355633;28;20042;-79
2022/10/15 17:31:01;;;;;;;0.30;0.30;;;;;;;;;;10357938;28;20040;-79
2022/10/15 17:36:05;;;;;;;0.95;0.20;;;;;;;;;;10376095;28;20046;-78
2022/10/15 17:41:12;;;;;;;0.60;0.43;;;;;;;;;;10374520;28;20042;-77
2022/10/15 17:46:17;;;;;;;0.98;0.40;;;;;;;;;;10371916;28;20042;-80
2022/10/15 17:51:23;;;;;;;0.47;0.40;;;;;;;;;;10354565;28;20046;-80
2022/10/15 17:56:33;;;;;;;0.40;0.30;;;;;;;;;;10371904;28;20340;-77
2022/10/15 18:01:37;;;;;;;;;;;;;;;;;;10360719;28;20582;-80
2022/10/15 18:06:58;;;;;;;1.40;0.40;;;;;;;;;;10348133;28;20008;-79
2022/10/15 18:12:04;;;;;;;0.70;0.52;;;;;;;;;;10349217;28;20053;-80
2022/10/15 18:17:09;;;;;;;0.70;0.50;;;;;;;;;;10350721;28;20050;-79
2022/10/15 18:22:13;;;;;;;0.30;0.30;;;;;;;;;;10348747;28;20042;-80
2022/10/15 18:27:17;;;;;;;0.55;0.47;;;;;;;;;;10366041;28;20049;-79
2022/10/15 18:32:21;;;;;;;0.30;0.30;;;;;;;;;;10366947;28;20053;-78
2022/10/15 18:37:24;;;;;;;0.98;0.40;;;;;;;;;;10347445;28;20046;-79
2022/10/15 18:42:29;;;;;;;1.17;0.20;;;;;;;;;;10364698;28;20041;-78
2022/10/15 18:47:32;;;;;;;0.20;0.20;;;;;;;;;;10369445;28;20710;-79
2022/10/15 18:52:35;;;;;;;0.20;0.20;;;;;;;;;;10359203;28;20048;-79
2022/10/15 18:57:44;;;;;;;1.20;0.20;;;;;;;;;;10377258;28;20069;-81
2022/10/15 19:02:47;;;;;;;0.77;0.35;;;;;;;;;;10360151;28;20046;-78
2022/10/15 19:07:54;;;;;;;0.52;0.45;;;;;;;;;;10371535;28;20051;-79
2022/10/15 19:12:58;;;;;;;0.82;0.30;;;;;;;;;;10370476;28;20528;-77
2022/10/15 19:18:09;;;;;;;1.15;0.35;;;;;;;;;;10352100;28;20045;-79
2022/10/15 19:23:13;;;;;;;0.22;0.20;;;;;;;;;;10371690;28;20048;-78
2022/10/15 19:28:18;;;;;;;0.20;0.20;;;;;;;;;;10356112;28;20042;-78
2022/10/15 19:33:21;;;;;;;0.20;0.20;;;;;;;;;;10357073;28;20517;-80
2022/10/15 19:38:26;;;;;;;0.30;0.10;;;;;;;;;;10374433;28;20536;-81
2022/10/15 19:43:31;;;;;;;0.30;0.20;;;;;;;;;;10373508;28;20077;-79
2022/10/15 19:48:34;;;;;;;0.98;0.38;;;;;;;;;;10372628;28;20129;-79
2022/10/15 19:53:37;;;;;;;1.92;0.30;;;;;;;;;;10333223;28;20177;-80
2022/10/15 19:58:42;;;;;;;1.65;0.30;;;;;;;;;;10307091;28;20052;-79
2022/10/15 20:03:45;;;;;;;0.13;0.13;;;;;;;;;;10333784;28;20042;-80
2022/10/15 20:08:49;;;;;;;1.35;0.30;;;;;;;;;;10332371;28;20423;-79
2022/10/15 20:13:54;;;;;;;0.38;0.20;;;;;;;;;;10334398;28;20127;-79
2022/10/15 20:18:57;;;;;;;1.13;0.35;;;;;;;;;;10340834;28;20038;-82
2022/10/15 20:24:02;;;;;;;0.17;0.15;;;;;;;;;;10316647;28;20062;-81
2022/10/15 20:29:08;;;;;;;0.10;0.10;;;;;;;;;;10346530;28;20096;-79
2022/10/15 20:34:11;;;;;;;0.10;0.10;;;;;;;;;;10317244;28;20623;-79
2022/10/15 20:39:15;;;;;;;0.60;0.30;;;;;;;;;;10316781;28;20042;-80
2022/10/15 20:44:19;;;;;;;0.68;0.30;;;;;;;;;;10335826;28;20042;-78
2022/10/15 20:49:28;;;;;;;0.50;0.30;;;;;;;;;;10342307;28;20046;-79
2022/10/15 20:54:31;;;;;;;0.55;0.20;;;;;;;;;;10376547;28;20053;-81
2022/10/15 20:59:36;;;;;;;1.27;0.40;;;;;;;;;;10374796;28;20450;-80
2022/10/15 21:04:39;;;;;;;0.50;0.25;;;;;;;;;;10391329;28;20030;-80
2022/10/15 21:09:43;;;;;;;1.20;0.40;;;;;;;;;;10363609;28;20057;-80
2022/10/15 21:14:47;;;;;;;1.30;0.80;;;;;;;;;;10363989;28;20046;-81
2022/10/15 21:19:51;;;;;;;1.02;0.80;;;;;;;;;;10357031;28;20046;-80
2022/10/15 21:24:54;;;;;;;0.75;0.55;;;;;;;;;;10379041;28;20819;-81
2022/10/15 21:29:59;;;;;;;1.20;0.52;;;;;;;;;;10379370;28;20102;-80
2022/10/15 21:35:03;;;;;;;2.03;0.60;;;;;;;;;;10379852;28;20478;-81
2022/10/15 21:40:08;;;;;;;0.70;0.50;;;;;;;;;;10387316;28;20710;-81
2022/10/15 21:45:15;;;;;;;0.63;0.50;;;;;;;;;;10368312;28;20045;-81
2022/10/15 21:50:18;;;;;;;2.05;0.40;;;;;;;;;;10384425;28;20056;-79
2022/10/15 21:55:22;;;;;;;0.80;0.47;;;;;;;;;;10383732;28;20049;-80
2022/10/15 22:00:27;;;;;;;0.65;0.20;;;;;;;;;;10365354;28;20049;-79
2022/10/15 22:05:34;;;;;;;0.70;0.40;;;;;;;;;;10383658;28;20559;-80
2022/10/15 22:10:38;;;;;;;1.00;0.40;;;;;;;;;;10358504;28;20044;-78
2022/10/15 22:15:43;;;;;;;0.60;0.43;;;;;;;;;;10397621;28;20034;-78
2022/10/15 22:20:46;;;;;;;1.02;0.43;;;;;;;;;;10364909;28;20058;-80
2022/10/15 22:25:57;;;;;;;0.52;0.32;;;;;;;;;;10370409;28;20104;-79
2022/10/15 22:31:04;;;;;;;2.38;0.63;;;;;;;;;;10366896;28;20061;-79
2022/10/15 22:36:12;;;;;;;1.40;0.60;;;;;;;;;;10369328;28;20034;-79
2022/10/15 22:41:19;;;;;;;0.45;0.38;;;;;;;;;;10351867;28;20246;-80
2022/10/15 22:46:24;;;;;;;2.15;0.60;;;;;;;;;;10368615;28;20457;-78
2022/10/15 22:51:27;;;;;;;0.82;0.77;;;;;;;;;;10358099;28;20065;-78
2022/10/15 22:56:32;;;;;;;0.52;0.47;;;;;;;;;;10352251;28;20735;-80
2022/10/15 23:01:36;;;;;;;1.25;0.43;;;;;;;;;;10384700;28;20140;-80
2022/10/15 23:06:40;;;;;;;1.27;0.55;;;;;;;;;;10373936;28;20045;-78
2022/10/15 23:11:44;;;;;;;0.70;0.60;;;;;;;;;;10364162;28;20034;-80
2022/10/15 23:16:49;;;;;;;0.45;0.35;;;;;;;;;;10378614;28;20045;-79
2022/10/15 23:21:55;;;;;;;1.80;0.32;;;;;;;;;;10370229;28;20067;-80
2022/10/15 23:26:58;;;;;;;2.90;0.53;;;;;;;;;;10361940;28;20494;-80
2022/10/15 23:32:03;;;;;;;0.68;0.45;;;;;;;;;;10376674;28;20300;-80
2022/10/15 23:37:06;;;;;;;1.17;0.45;;;;;;;;;;10374217;28;20052;-80
2022/10/15 23:42:10;;;;;;;0.68;0.50;;;;;;;;;;10358442;28;20096;-79
2022/10/15 23:47:14;;;;;;;0.68;0.38;;;;;;;;;;10358553;28;20048;-80
2022/10/15 23:52:18;;;;;;;0.32;0.32;;;;;;;;;;10396702;28;20133;-80
2022/10/15 23:57:21;;;;;;;2.10;0.40;;;;;;;;;;10362832;28;20117;-81
